Littlerock, Washington
Current Conditions -  °F | °C
As of 2:54 AM on Friday 28 Nov 2014 (Local Time) from KOLM Reporting Station
Overcast Overcast  
Wind Chill: 53°   Ceiling: 1800
Heat Index: 53°   Visibility: 10mi
Dew Point: 50°   Wind: 14mph
Humidity: 89%   Direction: 190°S
Pressure: 29.67"   Gusts: NA
Location:  46.9°N, 123.02°W
Report Text: KOLM 281054Z AUTO 19012KT 10SM FEW009 BKN018 OVC024 12/10 A2967 RMK AO2 RAB22E32 SLP046 P0000 T01170100
Loading
Personal Weather Stations






























Interactive Weather Map New forecast layout! Learn more

10-Day Weather Forecast

Advertisements
Track Severe Weather on mobile